sensor_id;sensor_type;location;lat;lon;timestamp;pressure;altitude;pressure_sealevel;temperature;humidity
59608;BME280;45426;44.726;10.390;2023-05-23T00:01:40;100304.13;;;18.71;100.00
59608;BME280;45426;44.726;10.390;2023-05-23T00:04:07;100299.41;;;18.71;100.00
59608;BME280;45426;44.726;10.390;2023-05-23T00:06:33;100299.47;;;19.11;100.00
59608;BME280;45426;44.726;10.390;2023-05-23T00:09:00;100296.66;;;18.71;100.00
59608;BME280;45426;44.726;10.390;2023-05-23T00:11:26;100301.00;;;18.72;100.00
59608;BME280;45426;44.726;10.390;2023-05-23T00:13:53;100307.63;;;18.57;100.00
59608;BME280;45426;44.726;10.390;2023-05-23T00:16:19;100306.75;;;18.24;100.00
59608;BME280;45426;44.726;10.390;2023-05-23T00:18:45;100303.69;;;18.47;100.00
59608;BME280;45426;44.726;10.390;2023-05-23T00:21:13;100307.22;;;18.40;100.00
59608;BME280;45426;44.726;10.390;2023-05-23T00:23:40;100305.16;;;18.16;100.00
59608;BME280;45426;44.726;10.390;2023-05-23T00:26:09;100297.72;;;18.20;100.00
59608;BME280;45426;44.726;10.390;2023-05-23T00:28:36;100298.16;;;18.40;100.00
59608;BME280;45426;44.726;10.390;2023-05-23T00:31:01;100298.94;;;18.33;100.00
59608;BME280;45426;44.726;10.390;2023-05-23T00:33:27;100297.44;;;18.61;100.00
59608;BME280;45426;44.726;10.390;2023-05-23T00:35:54;100292.00;;;19.22;100.00
59608;BME280;45426;44.726;10.390;2023-05-23T00:38:19;100295.53;;;18.90;100.00
59608;BME280;45426;44.726;10.390;2023-05-23T00:40:45;100295.94;;;19.10;100.00
59608;BME280;45426;44.726;10.390;2023-05-23T00:43:10;100294.31;;;18.73;100.00
59608;BME280;45426;44.726;10.390;2023-05-23T00:45:36;100298.25;;;18.79;100.00
59608;BME280;45426;44.726;10.390;2023-05-23T00:48:03;100295.88;;;18.71;100.00
59608;BME280;45426;44.726;10.390;2023-05-23T00:50:28;100299.78;;;18.62;100.00
59608;BME280;45426;44.726;10.390;2023-05-23T00:52:55;100296.22;;;18.48;100.00
59608;BME280;45426;44.726;10.390;2023-05-23T00:55:22;100304.44;;;18.44;100.00
59608;BME280;45426;44.726;10.390;2023-05-23T00:57:49;100299.81;;;18.73;100.00
59608;BME280;45426;44.726;10.390;2023-05-23T01:00:16;100301.16;;;18.02;100.00
59608;BME280;45426;44.726;10.390;2023-05-23T01:02:46;100308.78;;;18.41;100.00
59608;BME280;45426;44.726;10.390;2023-05-23T01:05:14;100297.09;;;19.02;100.00
59608;BME280;45426;44.726;10.390;2023-05-23T01:07:42;100304.19;;;19.03;100.00
59608;BME280;45426;44.726;10.390;2023-05-23T01:10:08;100300.25;;;19.11;100.00
59608;BME280;45426;44.726;10.390;2023-05-23T01:15:15;100301.84;;;19.05;100.00
59608;BME280;45426;44.726;10.390;2023-05-23T01:20:36;100303.00;;;19.15;100.00
59608;BME280;45426;44.726;10.390;2023-05-23T01:28:06;100293.59;;;19.12;100.00
59608;BME280;45426;44.726;10.390;2023-05-23T01:30:38;100301.34;;;18.56;100.00
59608;BME280;45426;44.726;10.390;2023-05-23T01:33:05;100294.25;;;18.45;100.00
59608;BME280;45426;44.726;10.390;2023-05-23T01:35:36;100293.34;;;18.12;100.00
59608;BME280;45426;44.726;10.390;2023-05-23T01:38:02;100299.81;;;18.70;100.00
59608;BME280;45426;44.726;10.390;2023-05-23T01:40:28;100295.94;;;19.07;100.00
59608;BME280;45426;44.726;10.390;2023-05-23T01:42:54;100290.00;;;18.72;100.00
59608;BME280;45426;44.726;10.390;2023-05-23T01:45:23;100290.31;;;18.49;100.00
59608;BME280;45426;44.726;10.390;2023-05-23T01:47:51;100292.38;;;19.20;100.00
59608;BME280;45426;44.726;10.390;2023-05-23T01:50:18;100292.00;;;19.18;100.00
59608;BME280;45426;44.726;10.390;2023-05-23T01:52:45;100291.88;;;18.43;100.00
59608;BME280;45426;44.726;10.390;2023-05-23T01:55:13;100291.56;;;17.75;100.00
59608;BME280;45426;44.726;10.390;2023-05-23T01:57:43;100290.50;;;17.87;100.00
59608;BME280;45426;44.726;10.390;2023-05-23T02:00:12;100292.78;;;17.77;100.00
59608;BME280;45426;44.726;10.390;2023-05-23T02:02:40;100298.66;;;17.76;100.00
59608;BME280;45426;44.726;10.390;2023-05-23T02:05:05;100285.06;;;18.04;100.00
59608;BME280;45426;44.726;10.390;2023-05-23T02:07:31;100282.38;;;18.19;100.00
59608;BME280;45426;44.726;10.390;2023-05-23T02:09:56;100282.41;;;18.26;100.00
59608;BME280;45426;44.726;10.390;2023-05-23T02:12:22;100281.66;;;18.29;100.00
59608;BME280;45426;44.726;10.390;2023-05-23T02:14:48;100285.63;;;17.65;100.00
59608;BME280;45426;44.726;10.390;2023-05-23T02:17:17;100288.03;;;17.71;100.00
59608;BME280;45426;44.726;10.390;2023-05-23T02:19:44;100289.88;;;17.52;100.00
59608;BME280;45426;44.726;10.390;2023-05-23T02:22:10;100287.84;;;17.42;100.00
59608;BME280;45426;44.726;10.390;2023-05-23T02:24:35;100290.28;;;16.99;100.00
59608;BME280;45426;44.726;10.390;2023-05-23T02:27:01;100289.53;;;17.05;100.00
59608;BME280;45426;44.726;10.390;2023-05-23T02:29:26;100289.63;;;17.16;100.00
59608;BME280;45426;44.726;10.390;2023-05-23T02:31:52;100278.94;;;17.63;100.00
59608;BME280;45426;44.726;10.390;2023-05-23T02:34:17;100284.03;;;17.61;100.00
59608;BME280;45426;44.726;10.390;2023-05-23T02:36:43;100290.75;;;17.67;100.00
59608;BME280;45426;44.726;10.390;2023-05-23T02:39:08;100285.41;;;17.89;100.00
59608;BME280;45426;44.726;10.390;2023-05-23T02:41:34;100279.22;;;18.10;100.00
59608;BME280;45426;44.726;10.390;2023-05-23T02:44:03;100279.19;;;18.02;100.00
59608;BME280;45426;44.726;10.390;2023-05-23T02:46:28;100282.47;;;17.63;100.00
59608;BME280;45426;44.726;10.390;2023-05-23T02:48:54;100282.81;;;17.51;100.00
59608;BME280;45426;44.726;10.390;2023-05-23T02:51:20;100272.09;;;17.98;100.00
59608;BME280;45426;44.726;10.390;2023-05-23T02:53:45;100277.22;;;17.99;100.00
59608;BME280;45426;44.726;10.390;2023-05-23T02:56:11;100279.13;;;17.88;100.00
59608;BME280;45426;44.726;10.390;2023-05-23T02:58:38;100272.13;;;18.01;100.00
59608;BME280;45426;44.726;10.390;2023-05-23T03:01:04;100279.88;;;17.85;100.00
59608;BME280;45426;44.726;10.390;2023-05-23T03:03:30;100266.56;;;17.87;100.00
59608;BME280;45426;44.726;10.390;2023-05-23T03:05:56;100273.25;;;17.93;100.00
59608;BME280;45426;44.726;10.390;2023-05-23T03:08:22;100273.00;;;18.31;100.00
59608;BME280;45426;44.726;10.390;2023-05-23T03:10:48;100268.69;;;18.44;100.00
59608;BME280;45426;44.726;10.390;2023-05-23T03:13:13;100261.59;;;18.32;100.00
59608;BME280;45426;44.726;10.390;2023-05-23T03:15:39;100267.97;;;18.65;100.00
59608;BME280;45426;44.726;10.390;2023-05-23T03:18:04;100266.00;;;18.69;100.00
59608;BME280;45426;44.726;10.390;2023-05-23T03:20:30;100262.84;;;18.60;100.00
59608;BME280;45426;44.726;10.390;2023-05-23T03:22:55;100271.03;;;18.24;100.00
59608;BME280;45426;44.726;10.390;2023-05-23T03:25:21;100267.47;;;18.20;100.00
59608;BME280;45426;44.726;10.390;2023-05-23T03:27:46;100269.00;;;18.14;100.00
59608;BME280;45426;44.726;10.390;2023-05-23T03:30:12;100265.19;;;18.54;100.00
59608;BME280;45426;44.726;10.390;2023-05-23T03:32:40;100264.59;;;17.91;100.00
59608;BME280;45426;44.726;10.390;2023-05-23T03:35:06;100270.47;;;17.23;100.00
59608;BME280;45426;44.726;10.390;2023-05-23T03:37:33;100275.47;;;17.11;100.00
59608;BME280;45426;44.726;10.390;2023-05-23T03:39:58;100270.16;;;17.36;100.00
59608;BME280;45426;44.726;10.390;2023-05-23T03:42:24;100264.06;;;17.64;100.00
59608;BME280;45426;44.726;10.390;2023-05-23T03:44:51;100268.72;;;17.60;100.00
59608;BME280;45426;44.726;10.390;2023-05-23T03:47:17;100264.97;;;17.86;100.00
59608;BME280;45426;44.726;10.390;2023-05-23T03:49:42;100274.00;;;17.27;100.00
59608;BME280;45426;44.726;10.390;2023-05-23T03:52:09;100269.06;;;17.48;100.00
59608;BME280;45426;44.726;10.390;2023-05-23T03:54:35;100271.59;;;17.15;100.00
59608;BME280;45426;44.726;10.390;2023-05-23T03:57:00;100270.91;;;17.33;100.00
59608;BME280;45426;44.726;10.390;2023-05-23T03:59:27;100274.94;;;17.50;100.00
59608;BME280;45426;44.726;10.390;2023-05-23T04:01:52;100279.56;;;17.94;100.00
59608;BME280;45426;44.726;10.390;2023-05-23T04:04:18;100271.28;;;17.90;100.00
59608;BME280;45426;44.726;10.390;2023-05-23T04:06:45;100278.53;;;17.57;100.00
59608;BME280;45426;44.726;10.390;2023-05-23T04:09:12;100279.75;;;17.67;100.00
59608;BME280;45426;44.726;10.390;2023-05-23T04:11:38;100278.88;;;17.52;100.00
59608;BME280;45426;44.726;10.390;2023-05-23T04:14:04;100283.56;;;17.48;100.00
59608;BME280;45426;44.726;10.390;2023-05-23T04:16:29;100271.66;;;17.89;100.00
59608;BME280;45426;44.726;10.390;2023-05-23T04:18:57;100278.31;;;17.88;100.00
59608;BME280;45426;44.726;10.390;2023-05-23T04:21:23;100277.94;;;17.89;100.00
59608;BME280;45426;44.726;10.390;2023-05-23T04:23:49;100280.78;;;17.41;100.00
59608;BME280;45426;44.726;10.390;2023-05-23T04:26:14;100285.91;;;17.46;100.00
59608;BME280;45426;44.726;10.390;2023-05-23T04:28:40;100285.72;;;17.17;100.00
59608;BME280;45426;44.726;10.390;2023-05-23T04:31:08;100290.22;;;17.43;100.00
59608;BME280;45426;44.726;10.390;2023-05-23T04:33:33;100286.91;;;17.79;100.00
59608;BME280;45426;44.726;10.390;2023-05-23T04:35:58;100284.84;;;17.65;100.00
59608;BME280;45426;44.726;10.390;2023-05-23T04:38:24;100292.34;;;17.72;100.00
59608;BME280;45426;44.726;10.390;2023-05-23T04:40:53;100291.06;;;17.51;100.00
59608;BME280;45426;44.726;10.390;2023-05-23T04:43:18;100293.41;;;17.53;100.00
59608;BME280;45426;44.726;10.390;2023-05-23T04:45:48;100292.00;;;17.80;100.00
59608;BME280;45426;44.726;10.390;2023-05-23T04:48:18;100290.94;;;17.92;100.00
59608;BME280;45426;44.726;10.390;2023-05-23T04:50:46;100292.66;;;18.29;100.00
59608;BME280;45426;44.726;10.390;2023-05-23T04:53:13;100285.66;;;18.68;100.00
59608;BME280;45426;44.726;10.390;2023-05-23T04:55:38;100288.06;;;19.16;100.00
59608;BME280;45426;44.726;10.390;2023-05-23T04:58:04;100280.53;;;19.67;100.00
59608;BME280;45426;44.726;10.390;2023-05-23T05:00:29;100290.78;;;19.41;100.00
59608;BME280;45426;44.726;10.390;2023-05-23T05:02:55;100296.72;;;18.93;100.00
59608;BME280;45426;44.726;10.390;2023-05-23T05:05:20;100293.53;;;19.52;100.00
59608;BME280;45426;44.726;10.390;2023-05-23T05:07:46;100292.78;;;19.44;100.00
59608;BME280;45426;44.726;10.390;2023-05-23T05:10:11;100286.84;;;19.56;100.00
59608;BME280;45426;44.726;10.390;2023-05-23T05:12:45;100289.41;;;20.17;100.00
59608;BME280;45426;44.726;10.390;2023-05-23T05:15:14;100290.72;;;19.84;100.00
59608;BME280;45426;44.726;10.390;2023-05-23T05:17:41;100290.84;;;20.47;100.00
59608;BME280;45426;44.726;10.390;2023-05-23T05:20:10;100289.31;;;20.43;100.00
59608;BME280;45426;44.726;10.390;2023-05-23T05:22:36;100295.72;;;20.18;100.00
59608;BME280;45426;44.726;10.390;2023-05-23T05:25:05;100289.06;;;20.12;100.00
59608;BME280;45426;44.726;10.390;2023-05-23T05:27:32;100289.28;;;20.46;100.00
59608;BME280;45426;44.726;10.390;2023-05-23T05:29:57;100288.75;;;19.92;100.00
59608;BME280;45426;44.726;10.390;2023-05-23T05:32:28;100285.53;;;20.04;100.00
59608;BME280;45426;44.726;10.390;2023-05-23T05:34:58;100289.22;;;20.57;100.00
59608;BME280;45426;44.726;10.390;2023-05-23T05:37:24;100293.41;;;20.80;100.00
59608;BME280;45426;44.726;10.390;2023-05-23T05:39:49;100275.00;;;21.14;100.00
59608;BME280;45426;44.726;10.390;2023-05-23T05:42:15;100278.47;;;21.67;100.00
59608;BME280;45426;44.726;10.390;2023-05-23T05:44:40;100285.19;;;22.01;100.00
59608;BME280;45426;44.726;10.390;2023-05-23T05:47:06;100284.34;;;21.28;100.00
59608;BME280;45426;44.726;10.390;2023-05-23T05:49:32;100287.91;;;21.28;100.00
59608;BME280;45426;44.726;10.390;2023-05-23T05:51:57;100280.75;;;21.76;100.00
59608;BME280;45426;44.726;10.390;2023-05-23T05:54:23;100292.56;;;21.39;100.00
59608;BME280;45426;44.726;10.390;2023-05-23T05:56:48;100288.53;;;21.43;100.00
59608;BME280;45426;44.726;10.390;2023-05-23T05:59:14;100282.91;;;21.58;100.00
59608;BME280;45426;44.726;10.390;2023-05-23T06:01:39;100292.69;;;22.35;100.00
59608;BME280;45426;44.726;10.390;2023-05-23T06:04:05;100283.63;;;22.61;100.00
59608;BME280;45426;44.726;10.390;2023-05-23T06:06:30;100280.56;;;23.06;100.00
59608;BME280;45426;44.726;10.390;2023-05-23T06:08:56;100286.16;;;23.70;100.00
59608;BME280;45426;44.726;10.390;2023-05-23T06:11:22;100284.50;;;23.96;100.00
59608;BME280;45426;44.726;10.390;2023-05-23T06:13:47;100282.94;;;23.52;100.00
59608;BME280;45426;44.726;10.390;2023-05-23T06:16:13;100280.19;;;24.32;100.00
59608;BME280;45426;44.726;10.390;2023-05-23T06:18:39;100287.81;;;25.30;100.00
59608;BME280;45426;44.726;10.390;2023-05-23T06:21:08;100288.78;;;25.07;100.00
59608;BME280;45426;44.726;10.390;2023-05-23T06:23:33;100288.94;;;24.99;100.00
59608;BME280;45426;44.726;10.390;2023-05-23T06:25:58;100283.41;;;24.99;100.00
59608;BME280;45426;44.726;10.390;2023-05-23T06:28:24;100299.13;;;23.97;100.00
59608;BME280;45426;44.726;10.390;2023-05-23T06:30:50;100284.16;;;24.84;100.00
59608;BME280;45426;44.726;10.390;2023-05-23T06:33:15;100279.56;;;26.27;100.00
59608;BME280;45426;44.726;10.390;2023-05-23T06:35:41;100282.53;;;27.22;100.00
59608;BME280;45426;44.726;10.390;2023-05-23T06:38:07;100282.44;;;27.13;100.00
59608;BME280;45426;44.726;10.390;2023-05-23T06:40:32;100276.22;;;27.88;100.00
59608;BME280;45426;44.726;10.390;2023-05-23T06:42:58;100286.91;;;28.65;100.00
59608;BME280;45426;44.726;10.390;2023-05-23T06:45:23;100280.13;;;30.23;100.00
59608;BME280;45426;44.726;10.390;2023-05-23T06:47:49;100284.19;;;31.37;100.00
59608;BME280;45426;44.726;10.390;2023-05-23T06:50:16;100282.63;;;31.36;100.00
59608;BME280;45426;44.726;10.390;2023-05-23T06:52:44;100288.44;;;31.08;100.00
59608;BME280;45426;44.726;10.390;2023-05-23T06:55:11;100286.47;;;34.28;100.00
59608;BME280;45426;44.726;10.390;2023-05-23T06:57:39;100283.47;;;34.37;100.00
59608;BME280;45426;44.726;10.390;2023-05-23T07:00:05;100283.56;;;36.81;100.00
59608;BME280;45426;44.726;10.390;2023-05-23T07:02:31;100294.22;;;37.70;100.00
59608;BME280;45426;44.726;10.390;2023-05-23T07:04:56;100282.84;;;39.67;96.63
59608;BME280;45426;44.726;10.390;2023-05-23T07:07:22;100283.50;;;40.38;86.93
59608;BME280;45426;44.726;10.390;2023-05-23T07:09:47;100286.06;;;39.57;98.36
59608;BME280;45426;44.726;10.390;2023-05-23T07:12:13;100290.72;;;41.05;83.64
59608;BME280;45426;44.726;10.390;2023-05-23T07:14:38;100288.69;;;41.40;81.94
59608;BME280;45426;44.726;10.390;2023-05-23T07:17:07;100288.88;;;40.54;79.89
59608;BME280;45426;44.726;10.390;2023-05-23T07:19:32;100287.41;;;41.14;74.77
59608;BME280;45426;44.726;10.390;2023-05-23T07:21:58;100288.84;;;40.28;71.79
59608;BME280;45426;44.726;10.390;2023-05-23T07:24:23;100289.84;;;38.84;79.50
59608;BME280;45426;44.726;10.390;2023-05-23T07:26:48;100290.97;;;38.75;73.19
59608;BME280;45426;44.726;10.390;2023-05-23T07:29:14;100289.69;;;40.82;74.27
59608;BME280;45426;44.726;10.390;2023-05-23T07:31:39;100297.19;;;39.74;74.42
59608;BME280;45426;44.726;10.390;2023-05-23T07:34:05;100299.47;;;40.27;73.17
59608;BME280;45426;44.726;10.390;2023-05-23T07:36:31;100300.06;;;39.17;74.69
59608;BME280;45426;44.726;10.390;2023-05-23T07:38:58;100294.47;;;40.01;71.65
59608;BME280;45426;44.726;10.390;2023-05-23T07:41:24;100290.22;;;39.18;73.35
59608;BME280;45426;44.726;10.390;2023-05-23T07:43:49;100298.38;;;37.57;81.07
59608;BME280;45426;44.726;10.390;2023-05-23T07:46:15;100298.03;;;34.30;100.00
59608;BME280;45426;44.726;10.390;2023-05-23T07:48:40;100292.97;;;32.58;100.00
59608;BME280;45426;44.726;10.390;2023-05-23T07:51:06;100290.88;;;32.23;100.00
59608;BME280;45426;44.726;10.390;2023-05-23T07:53:31;100288.53;;;31.77;100.00
59608;BME280;45426;44.726;10.390;2023-05-23T07:55:57;100287.38;;;31.99;100.00
59608;BME280;45426;44.726;10.390;2023-05-23T07:58:22;100289.91;;;31.82;100.00
59608;BME280;45426;44.726;10.390;2023-05-23T08:00:48;100287.38;;;31.84;100.00
59608;BME280;45426;44.726;10.390;2023-05-23T08:03:19;100277.09;;;31.66;100.00
59608;BME280;45426;44.726;10.390;2023-05-23T08:05:45;100274.38;;;31.71;100.00
59608;BME280;45426;44.726;10.390;2023-05-23T08:08:11;100270.44;;;31.39;100.00
59608;BME280;45426;44.726;10.390;2023-05-23T08:10:36;100277.31;;;30.90;100.00
59608;BME280;45426;44.726;10.390;2023-05-23T08:13:04;100274.25;;;30.12;100.00
59608;BME280;45426;44.726;10.390;2023-05-23T08:15:31;100279.22;;;30.17;100.00
59608;BME280;45426;44.726;10.390;2023-05-23T08:17:58;100279.03;;;30.11;100.00
59608;BME280;45426;44.726;10.390;2023-05-23T08:20:25;100275.72;;;29.42;100.00
59608;BME280;45426;44.726;10.390;2023-05-23T08:22:57;100276.03;;;29.45;100.00
59608;BME280;45426;44.726;10.390;2023-05-23T08:25:23;100274.22;;;30.21;100.00
59608;BME280;45426;44.726;10.390;2023-05-23T08:27:51;100274.31;;;29.56;100.00
59608;BME280;45426;44.726;10.390;2023-05-23T08:30:20;100271.50;;;29.75;100.00
59608;BME280;45426;44.726;10.390;2023-05-23T08:32:47;100274.31;;;29.38;100.00
59608;BME280;45426;44.726;10.390;2023-05-23T08:35:13;100276.34;;;29.56;100.00
59608;BME280;45426;44.726;10.390;2023-05-23T08:37:38;100274.22;;;28.82;100.00
59608;BME280;45426;44.726;10.390;2023-05-23T08:40:06;100277.41;;;29.31;100.00
59608;BME280;45426;44.726;10.390;2023-05-23T08:42:33;100272.91;;;29.33;100.00
59608;BME280;45426;44.726;10.390;2023-05-23T08:44:58;100272.72;;;29.09;100.00
59608;BME280;45426;44.726;10.390;2023-05-23T08:47:24;100277.88;;;29.85;100.00
59608;BME280;45426;44.726;10.390;2023-05-23T08:49:51;100275.81;;;29.94;100.00
59608;BME280;45426;44.726;10.390;2023-05-23T08:52:20;100279.59;;;29.54;100.00
59608;BME280;45426;44.726;10.390;2023-05-23T08:54:49;100284.56;;;29.41;100.00
59608;BME280;45426;44.726;10.390;2023-05-23T08:57:15;100279.53;;;29.08;100.00
59608;BME280;45426;44.726;10.390;2023-05-23T08:59:41;100280.69;;;29.75;100.00
59608;BME280;45426;44.726;10.390;2023-05-23T09:02:09;100278.00;;;29.72;100.00
59608;BME280;45426;44.726;10.390;2023-05-23T09:04:36;100290.69;;;28.90;100.00
59608;BME280;45426;44.726;10.390;2023-05-23T09:07:01;100279.22;;;29.06;100.00
59608;BME280;45426;44.726;10.390;2023-05-23T09:09:30;100273.19;;;29.08;100.00
59608;BME280;45426;44.726;10.390;2023-05-23T09:11:57;100281.66;;;28.76;100.00
59608;BME280;45426;44.726;10.390;2023-05-23T09:14:25;100274.59;;;29.86;100.00
59608;BME280;45426;44.726;10.390;2023-05-23T09:16:59;100277.72;;;29.70;100.00
59608;BME280;45426;44.726;10.390;2023-05-23T09:19:25;100280.84;;;29.44;100.00
59608;BME280;45426;44.726;10.390;2023-05-23T09:21:52;100283.97;;;29.37;100.00
59608;BME280;45426;44.726;10.390;2023-05-23T09:24:18;100277.88;;;29.66;100.00
59608;BME280;45426;44.726;10.390;2023-05-23T09:26:49;100271.50;;;29.84;100.00
59608;BME280;45426;44.726;10.390;2023-05-23T09:29:18;100273.69;;;29.71;100.00
59608;BME280;45426;44.726;10.390;2023-05-23T09:31:44;100268.88;;;29.53;100.00
59608;BME280;45426;44.726;10.390;2023-05-23T09:34:10;100267.13;;;29.83;100.00
59608;BME280;45426;44.726;10.390;2023-05-23T09:36:39;100263.41;;;29.86;100.00
59608;BME280;45426;44.726;10.390;2023-05-23T09:39:05;100263.41;;;29.21;100.00
59608;BME280;45426;44.726;10.390;2023-05-23T09:41:33;100262.16;;;29.96;100.00
59608;BME280;45426;44.726;10.390;2023-05-23T09:44:04;100260.75;;;29.64;100.00
59608;BME280;45426;44.726;10.390;2023-05-23T09:46:30;100268.09;;;29.25;100.00
59608;BME280;45426;44.726;10.390;2023-05-23T09:48:55;100269.00;;;29.86;100.00
59608;BME280;45426;44.726;10.390;2023-05-23T09:51:22;100264.38;;;29.65;100.00
59608;BME280;45426;44.726;10.390;2023-05-23T09:53:50;100265.28;;;29.52;100.00
59608;BME280;45426;44.726;10.390;2023-05-23T09:56:17;100259.84;;;29.76;100.00
59608;BME280;45426;44.726;10.390;2023-05-23T09:58:48;100262.19;;;29.78;100.00
59608;BME280;45426;44.726;10.390;2023-05-23T10:01:14;100257.97;;;29.73;100.00
59608;BME280;45426;44.726;10.390;2023-05-23T10:03:50;100253.69;;;30.06;100.00
59608;BME280;45426;44.726;10.390;2023-05-23T10:06:25;100259.59;;;30.17;100.00
59608;BME280;45426;44.726;10.390;2023-05-23T10:09:00;100257.66;;;29.90;100.00
59608;BME280;45426;44.726;10.390;2023-05-23T10:14:00;100254.69;;;29.84;100.00
59608;BME280;45426;44.726;10.390;2023-05-23T10:19:09;100252.53;;;30.31;100.00
59608;BME280;45426;44.726;10.390;2023-05-23T10:21:41;100249.88;;;30.36;100.00
59608;BME280;45426;44.726;10.390;2023-05-23T10:24:10;100243.47;;;30.03;100.00
59608;BME280;45426;44.726;10.390;2023-05-23T10:26:39;100246.13;;;29.97;100.00
59608;BME280;45426;44.726;10.390;2023-05-23T10:29:06;100240.84;;;29.90;100.00
59608;BME280;45426;44.726;10.390;2023-05-23T10:31:32;100239.78;;;29.78;100.00
59608;BME280;45426;44.726;10.390;2023-05-23T10:34:39;100241.97;;;29.74;100.00
59608;BME280;45426;44.726;10.390;2023-05-23T10:37:07;100240.44;;;29.27;100.00
59608;BME280;45426;44.726;10.390;2023-05-23T10:42:47;100239.78;;;29.87;100.00
59608;BME280;45426;44.726;10.390;2023-05-23T10:45:21;100235.41;;;29.68;100.00
59608;BME280;45426;44.726;10.390;2023-05-23T10:47:50;100234.94;;;29.69;100.00
59608;BME280;45426;44.726;10.390;2023-05-23T10:50:36;100234.81;;;29.27;100.00
59608;BME280;45426;44.726;10.390;2023-05-23T10:53:04;100224.84;;;29.53;100.00
59608;BME280;45426;44.726;10.390;2023-05-23T10:55:31;100219.69;;;29.79;100.00
59608;BME280;45426;44.726;10.390;2023-05-23T10:58:18;100221.44;;;29.77;100.00
59608;BME280;45426;44.726;10.390;2023-05-23T11:00:53;100219.06;;;30.36;100.00
59608;BME280;45426;44.726;10.390;2023-05-23T11:06:04;100220.59;;;30.37;100.00
59608;BME280;45426;44.726;10.390;2023-05-23T11:08:37;100218.22;;;30.12;100.00
59608;BME280;45426;44.726;10.390;2023-05-23T11:11:04;100211.94;;;29.84;100.00
59608;BME280;45426;44.726;10.390;2023-05-23T11:16:30;100211.44;;;29.85;100.00
59608;BME280;45426;44.726;10.390;2023-05-23T11:22:03;100199.00;;;30.29;100.00
59608;BME280;45426;44.726;10.390;2023-05-23T11:24:53;100197.97;;;30.17;100.00
59608;BME280;45426;44.726;10.390;2023-05-23T11:27:35;100200.38;;;30.33;100.00
59608;BME280;45426;44.726;10.390;2023-05-23T11:30:08;100193.00;;;29.51;100.00
59608;BME280;45426;44.726;10.390;2023-05-23T11:32:35;100195.72;;;29.97;100.00
59608;BME280;45426;44.726;10.390;2023-05-23T11:35:02;100193.66;;;30.07;100.00
59608;BME280;45426;44.726;10.390;2023-05-23T11:37:29;100193.56;;;30.25;100.00
59608;BME280;45426;44.726;10.390;2023-05-23T11:39:55;100190.56;;;30.38;100.00
59608;BME280;45426;44.726;10.390;2023-05-23T11:42:21;100190.28;;;29.93;100.00
59608;BME280;45426;44.726;10.390;2023-05-23T11:44:51;100186.06;;;30.31;100.00
59608;BME280;45426;44.726;10.390;2023-05-23T11:47:17;100192.22;;;30.45;100.00
59608;BME280;45426;44.726;10.390;2023-05-23T11:49:44;100185.56;;;30.42;100.00
59608;BME280;45426;44.726;10.390;2023-05-23T11:52:13;100180.03;;;30.57;100.00
59608;BME280;45426;44.726;10.390;2023-05-23T11:54:40;100180.72;;;30.67;100.00
59608;BME280;45426;44.726;10.390;2023-05-23T11:57:09;100173.94;;;30.34;100.00
59608;BME280;45426;44.726;10.390;2023-05-23T11:59:34;100165.00;;;30.45;100.00
59608;BME280;45426;44.726;10.390;2023-05-23T12:02:02;100168.66;;;30.27;100.00
59608;BME280;45426;44.726;10.390;2023-05-23T12:04:27;100170.41;;;29.82;100.00
59608;BME280;45426;44.726;10.390;2023-05-23T12:06:53;100156.75;;;29.75;100.00
59608;BME280;45426;44.726;10.390;2023-05-23T12:09:19;100164.81;;;30.15;100.00
59608;BME280;45426;44.726;10.390;2023-05-23T12:11:44;100152.09;;;30.38;100.00
59608;BME280;45426;44.726;10.390;2023-05-23T12:14:15;100152.41;;;30.65;100.00
59608;BME280;45426;44.726;10.390;2023-05-23T12:16:44;100147.50;;;30.50;100.00
59608;BME280;45426;44.726;10.390;2023-05-23T12:19:11;100143.69;;;30.38;100.00
59608;BME280;45426;44.726;10.390;2023-05-23T12:21:42;100150.66;;;30.67;100.00
59608;BME280;45426;44.726;10.390;2023-05-23T12:24:21;100139.97;;;30.42;100.00
59608;BME280;45426;44.726;10.390;2023-05-23T12:26:59;100135.13;;;30.42;100.00
59608;BME280;45426;44.726;10.390;2023-05-23T12:29:31;100139.34;;;30.37;100.00
59608;BME280;45426;44.726;10.390;2023-05-23T12:31:59;100137.28;;;30.47;100.00
59608;BME280;45426;44.726;10.390;2023-05-23T12:34:25;100142.69;;;30.51;100.00
59608;BME280;45426;44.726;10.390;2023-05-23T12:36:58;100136.63;;;30.19;100.00
59608;BME280;45426;44.726;10.390;2023-05-23T12:39:25;100134.19;;;30.45;100.00
59608;BME280;45426;44.726;10.390;2023-05-23T12:41:51;100124.84;;;30.39;100.00
59608;BME280;45426;44.726;10.390;2023-05-23T12:44:17;100133.09;;;30.43;100.00
59608;BME280;45426;44.726;10.390;2023-05-23T12:46:43;100120.28;;;30.51;100.00
59608;BME280;45426;44.726;10.390;2023-05-23T12:49:09;100128.41;;;30.49;100.00
59608;BME280;45426;44.726;10.390;2023-05-23T12:51:35;100123.66;;;30.79;100.00
59608;BME280;45426;44.726;10.390;2023-05-23T12:54:00;100124.97;;;30.45;100.00
59608;BME280;45426;44.726;10.390;2023-05-23T12:56:26;100122.81;;;30.64;100.00
59608;BME280;45426;44.726;10.390;2023-05-23T12:58:52;100110.97;;;30.45;100.00